createdAt,value
2022-10-31T00:01:39.082Z,25.77
2022-10-31T00:04:07.316Z,27.75
2022-10-31T00:06:34.494Z,28.02
2022-10-31T00:09:05.168Z,28.90
2022-10-31T00:11:32.701Z,27.08
2022-10-31T00:14:00.465Z,28.40
2022-10-31T00:16:28.393Z,27.65
2022-10-31T00:19:00.730Z,26.45
2022-10-31T00:21:28.883Z,26.58
2022-10-31T00:23:56.015Z,27.27
2022-10-31T00:26:23.074Z,26.55
2022-10-31T00:28:50.375Z,26.73
2022-10-31T00:31:17.415Z,26.48
2022-10-31T00:33:44.877Z,25.77
2022-10-31T00:36:17.383Z,26.70
2022-10-31T00:38:46.073Z,26.33
2022-10-31T00:41:15.588Z,26.17
2022-10-31T00:43:44.233Z,26.85
2022-10-31T00:46:12.679Z,25.75
2022-10-31T00:48:39.879Z,26.52
2022-10-31T00:51:07.462Z,28.70
2022-10-31T00:53:35.330Z,28.27
2022-10-31T00:56:02.367Z,28.05
2022-10-31T00:58:29.393Z,28.95
2022-10-31T01:00:56.621Z,28.20
2022-10-31T01:03:30.846Z,27.90
2022-10-31T01:06:03.631Z,25.23
2022-10-31T01:08:30.931Z,29.85
2022-10-31T01:11:09.760Z,27.42
2022-10-31T01:13:37.284Z,27.70
2022-10-31T01:16:07.452Z,25.05
2022-10-31T01:18:35.239Z,25.23
2022-10-31T01:21:22.081Z,25.63
2022-10-31T01:23:49.377Z,27.15
2022-10-31T01:26:20.721Z,24.92
2022-10-31T01:28:56.467Z,24.77
2022-10-31T01:31:27.862Z,24.23
2022-10-31T01:33:56.019Z,29.35
2022-10-31T01:36:31.019Z,32.08
2022-10-31T01:39:08.886Z,32.78
2022-10-31T01:41:39.286Z,30.67
2022-10-31T01:44:15.318Z,27.92
2022-10-31T01:47:22.756Z,26.33
2022-10-31T01:49:57.805Z,23.52
2022-10-31T01:52:45.748Z,23.45
2022-10-31T01:55:45.283Z,26.42
2022-10-31T01:58:20.586Z,28.17
2022-10-31T02:00:55.619Z,26.65
2022-10-31T02:03:24.698Z,26.85
2022-10-31T02:05:55.741Z,27.58
2022-10-31T02:08:36.158Z,25.88
2022-10-31T02:11:03.151Z,24.10
2022-10-31T02:13:30.495Z,26.45
2022-10-31T02:16:00.054Z,27.88
2022-10-31T02:18:31.312Z,29.98
2022-10-31T02:21:20.696Z,28.75
2022-10-31T02:24:14.790Z,29.48
2022-10-31T02:27:27.785Z,27.60
2022-10-31T02:30:17.012Z,28.63
2022-10-31T02:32:51.788Z,27.98
2022-10-31T02:35:36.928Z,29.98
2022-10-31T02:38:29.646Z,28.08
2022-10-31T02:41:08.966Z,29.50
2022-10-31T02:44:12.033Z,28.13
2022-10-31T02:47:00.638Z,27.35
2022-10-31T02:49:39.795Z,28.35
2022-10-31T02:52:36.793Z,27.15
2022-10-31T02:55:34.678Z,28.05
2022-10-31T02:58:16.448Z,27.70
2022-10-31T03:01:08.594Z,28.15
2022-10-31T03:03:57.709Z,28.75
2022-10-31T03:07:02.002Z,26.83
2022-10-31T03:09:31.853Z,25.48
2022-10-31T03:12:23.755Z,23.70
2022-10-31T03:15:25.169Z,23.75
2022-10-31T03:18:09.362Z,23.20
2022-10-31T03:20:46.795Z,23.13
2022-10-31T03:23:20.378Z,23.80
2022-10-31T03:25:49.475Z,23.17
2022-10-31T03:28:23.151Z,24.85
2022-10-31T03:30:53.829Z,25.67
2022-10-31T03:33:30.014Z,25.50
2022-10-31T03:36:03.462Z,24.73
2022-10-31T03:38:33.128Z,23.20
2022-10-31T03:41:06.720Z,25.10
2022-10-31T03:43:43.853Z,23.63
2022-10-31T03:46:11.359Z,24.13
2022-10-31T03:48:39.726Z,24.40
2022-10-31T03:51:34.091Z,24.00
2022-10-31T03:54:30.086Z,24.00
2022-10-31T03:59:45.294Z,24.98
2022-10-31T04:04:48.729Z,25.95
2022-10-31T04:07:16.831Z,22.88
2022-10-31T04:09:48.793Z,24.83
2022-10-31T04:12:18.304Z,26.10
2022-10-31T04:14:49.884Z,22.38
2022-10-31T04:17:21.667Z,23.60
2022-10-31T04:19:48.735Z,22.05
2022-10-31T04:22:15.622Z,24.73
2022-10-31T04:24:42.762Z,21.23
2022-10-31T04:27:09.628Z,20.50
2022-10-31T04:29:36.597Z,23.98
2022-10-31T04:32:03.494Z,25.13
2022-10-31T04:34:30.513Z,22.67
2022-10-31T04:36:57.410Z,25.02
2022-10-31T04:39:26.667Z,23.73
2022-10-31T04:41:53.854Z,24.05
2022-10-31T04:44:20.976Z,22.92
2022-10-31T04:46:48.007Z,23.92
2022-10-31T04:49:15.050Z,24.60
2022-10-31T04:51:41.921Z,24.80
2022-10-31T04:54:09.109Z,25.08
2022-10-31T04:56:36.393Z,25.10
2022-10-31T04:59:03.735Z,27.83
2022-10-31T05:01:30.950Z,30.25
2022-10-31T05:03:58.009Z,31.20
2022-10-31T05:06:24.896Z,28.58
2022-10-31T05:08:52.068Z,27.23
2022-10-31T05:11:18.914Z,22.73
2022-10-31T05:13:45.943Z,18.77
2022-10-31T05:16:12.871Z,18.15
2022-10-31T05:18:39.647Z,17.30
2022-10-31T05:21:06.717Z,15.65
2022-10-31T05:23:33.556Z,16.13
2022-10-31T05:26:00.652Z,16.42
2022-10-31T05:28:27.539Z,18.33
2022-10-31T05:30:54.504Z,18.17
2022-10-31T05:33:21.296Z,19.98
2022-10-31T05:35:49.151Z,20.33
2022-10-31T05:38:16.020Z,16.77
2022-10-31T05:40:43.102Z,15.18
2022-10-31T05:43:10.439Z,16.05
2022-10-31T05:45:37.765Z,15.75
2022-10-31T05:48:05.499Z,13.82
2022-10-31T05:50:33.593Z,14.88
2022-10-31T05:53:05.415Z,14.38
2022-10-31T05:55:34.033Z,14.23
2022-10-31T05:58:01.427Z,14.73
2022-10-31T06:00:29.793Z,15.73
2022-10-31T06:03:06.271Z,14.50
2022-10-31T06:05:34.018Z,15.18
2022-10-31T06:08:01.461Z,14.30
2022-10-31T06:10:29.245Z,14.45
2022-10-31T06:12:56.166Z,15.27
2022-10-31T06:15:24.736Z,16.13
2022-10-31T06:18:04.131Z,14.85
2022-10-31T06:20:32.921Z,15.73
2022-10-31T06:23:01.441Z,14.18
2022-10-31T06:25:29.606Z,15.43
2022-10-31T06:27:57.101Z,15.15
2022-10-31T06:30:24.196Z,15.13
2022-10-31T06:32:51.003Z,16.25
2022-10-31T06:35:18.899Z,14.98
2022-10-31T06:37:55.017Z,14.13
2022-10-31T06:40:22.705Z,13.13
2022-10-31T06:43:01.322Z,13.82
2022-10-31T06:45:29.079Z,12.07
2022-10-31T06:48:15.942Z,14.13
2022-10-31T06:50:44.045Z,13.02
2022-10-31T06:53:12.084Z,13.18
2022-10-31T06:55:39.584Z,12.77
2022-10-31T06:58:06.634Z,12.43
2022-10-31T07:00:34.280Z,12.98
2022-10-31T07:03:05.228Z,12.63
2022-10-31T07:05:33.254Z,14.95
2022-10-31T07:08:04.654Z,14.30
2022-10-31T07:10:37.390Z,13.40
2022-10-31T07:13:13.081Z,14.10
2022-10-31T07:15:42.551Z,14.45
2022-10-31T07:18:12.049Z,13.68
2022-10-31T07:20:39.486Z,15.52
2022-10-31T07:23:06.785Z,13.95
2022-10-31T07:25:34.316Z,14.40
2022-10-31T07:28:01.446Z,24.20
2022-10-31T07:30:29.173Z,18.40
2022-10-31T07:32:56.544Z,14.50
2022-10-31T07:35:29.913Z,16.15
2022-10-31T07:37:58.054Z,15.25
2022-10-31T07:40:26.433Z,14.00
2022-10-31T07:42:54.458Z,14.93
2022-10-31T07:45:22.221Z,14.15
2022-10-31T07:47:52.122Z,16.02
2022-10-31T07:50:26.662Z,15.55
2022-10-31T07:53:07.628Z,15.98
2022-10-31T07:55:35.502Z,16.30
2022-10-31T07:58:06.909Z,15.48
2022-10-31T08:00:36.580Z,15.50
2022-10-31T08:03:11.605Z,15.43
2022-10-31T08:05:39.403Z,15.98
2022-10-31T08:08:06.988Z,14.65
2022-10-31T08:10:35.792Z,15.30
2022-10-31T08:13:12.163Z,15.40
2022-10-31T08:15:42.310Z,16.38
2022-10-31T08:18:16.257Z,15.55
2022-10-31T08:20:44.591Z,14.70
2022-10-31T08:23:13.227Z,17.38
2022-10-31T08:25:40.425Z,15.70
2022-10-31T08:28:09.561Z,25.50
2022-10-31T08:30:38.392Z,18.42
2022-10-31T08:33:14.462Z,17.35
2022-10-31T08:35:42.443Z,17.13
2022-10-31T08:38:12.643Z,15.48
2022-10-31T08:40:40.306Z,14.60
2022-10-31T08:43:13.657Z,17.27
2022-10-31T08:45:42.134Z,16.52
2022-10-31T08:48:15.745Z,18.38
2022-10-31T08:50:44.334Z,18.58
2022-10-31T08:53:17.155Z,16.98
2022-10-31T08:55:46.565Z,16.48
2022-10-31T08:58:19.854Z,16.55
2022-10-31T09:00:50.597Z,15.07
2022-10-31T09:03:20.822Z,15.68
2022-10-31T09:05:48.075Z,16.33
2022-10-31T09:08:17.380Z,21.95
2022-10-31T09:10:45.528Z,16.80
2022-10-31T09:13:21.697Z,16.48
2022-10-31T09:15:50.931Z,17.42
2022-10-31T09:18:22.330Z,17.60
2022-10-31T09:20:50.943Z,18.33
2022-10-31T09:23:23.963Z,18.25
2022-10-31T09:25:54.284Z,18.92
2022-10-31T09:28:24.711Z,18.70
2022-10-31T09:30:54.624Z,18.17
2022-10-31T09:33:22.547Z,21.40
2022-10-31T09:35:49.689Z,20.73
2022-10-31T09:38:21.302Z,21.15
2022-10-31T09:41:02.432Z,21.48
2022-10-31T09:43:44.458Z,21.73
2022-10-31T09:46:34.435Z,23.70
2022-10-31T09:49:38.893Z,24.88
2022-10-31T09:52:32.260Z,24.98
2022-10-31T09:55:31.369Z,25.33
2022-10-31T09:58:02.030Z,24.17
2022-10-31T10:00:30.537Z,27.02
2022-10-31T10:03:26.544Z,25.95
2022-10-31T10:08:47.108Z,26.65
2022-10-31T10:11:55.813Z,26.15
2022-10-31T10:14:46.246Z,25.60
2022-10-31T10:17:34.088Z,25.80
2022-10-31T10:20:27.863Z,26.95
2022-10-31T10:23:38.855Z,26.25
2022-10-31T10:26:21.107Z,28.10
2022-10-31T10:29:28.260Z,29.23
2022-10-31T10:32:01.157Z,29.60
2022-10-31T10:34:41.078Z,30.20
2022-10-31T10:37:31.663Z,29.55
2022-10-31T10:40:14.559Z,28.45
2022-10-31T10:43:10.292Z,28.45
2022-10-31T10:45:56.797Z,31.13
2022-10-31T10:48:33.035Z,28.15
2022-10-31T10:51:02.578Z,28.38
2022-10-31T10:54:03.159Z,28.70
2022-10-31T10:56:55.997Z,27.83
2022-10-31T10:59:23.827Z,27.65
2022-10-31T11:01:53.131Z,29.13
2022-10-31T11:04:36.457Z,28.67
2022-10-31T11:07:12.911Z,30.10
2022-10-31T11:09:40.072Z,28.00
2022-10-31T11:12:23.556Z,29.33
2022-10-31T11:15:00.442Z,30.95
2022-10-31T11:17:41.070Z,30.13
2022-10-31T11:20:17.823Z,30.63
2022-10-31T11:22:49.302Z,30.58
2022-10-31T11:25:24.970Z,29.63
2022-10-31T11:28:10.661Z,31.55
2022-10-31T11:30:47.915Z,28.90
2022-10-31T11:33:36.652Z,28.13
2022-10-31T11:36:16.410Z,28.38
2022-10-31T11:38:45.241Z,28.15
2022-10-31T11:41:15.368Z,29.83
2022-10-31T11:43:57.154Z,29.88
2022-10-31T11:46:42.992Z,26.95
2022-10-31T11:50:18.323Z,28.88
2022-10-31T11:52:45.855Z,27.45
2022-10-31T11:55:12.662Z,27.30
2022-10-31T11:57:51.176Z,27.25
2022-10-31T12:03:22.792Z,28.65
2022-10-31T12:06:15.208Z,27.65
2022-10-31T12:08:43.184Z,26.58
2022-10-31T12:11:25.115Z,26.95
2022-10-31T12:14:18.214Z,25.15
2022-10-31T12:17:08.045Z,27.52
2022-10-31T12:19:50.051Z,24.88
2022-10-31T12:22:45.092Z,24.30
2022-10-31T12:25:18.897Z,25.90
2022-10-31T12:28:13.728Z,24.52
2022-10-31T12:30:59.789Z,24.83
2022-10-31T12:33:41.609Z,24.35
2022-10-31T12:37:07.889Z,23.70
2022-10-31T12:40:05.466Z,24.55
2022-10-31T12:43:13.408Z,24.75
2022-10-31T12:45:56.346Z,23.13
2022-10-31T12:48:52.654Z,24.55
2022-10-31T12:51:50.578Z,24.30
2022-10-31T12:55:11.922Z,23.50
2022-10-31T12:57:48.358Z,25.33
2022-10-31T13:00:22.072Z,23.73
2022-10-31T13:03:01.335Z,24.35
2022-10-31T13:05:47.407Z,25.13
2022-10-31T13:08:21.160Z,23.58
2022-10-31T13:11:12.514Z,23.55
2022-10-31T13:13:56.551Z,23.45
2022-10-31T13:16:32.458Z,23.23
2022-10-31T13:19:10.499Z,24.85
2022-10-31T13:21:51.464Z,22.75
2022-10-31T13:24:32.422Z,22.17
2022-10-31T13:27:04.719Z,22.85
2022-10-31T13:29:41.149Z,23.85
2022-10-31T13:32:11.350Z,21.45
2022-10-31T13:34:44.245Z,22.63
2022-10-31T13:37:35.077Z,23.58
2022-10-31T13:40:43.671Z,21.98
2022-10-31T13:43:25.718Z,20.63
2022-10-31T13:45:55.610Z,22.30
2022-10-31T13:48:28.806Z,21.48
2022-10-31T13:51:03.502Z,23.92
2022-10-31T13:53:58.270Z,22.42
2022-10-31T13:56:33.112Z,22.17
2022-10-31T14:02:18.775Z,20.67
2022-10-31T14:07:26.746Z,22.13
2022-10-31T14:10:21.179Z,21.08
2022-10-31T14:13:30.175Z,22.63
2022-10-31T14:16:04.447Z,21.48
2022-10-31T14:18:44.049Z,22.15
2022-10-31T14:21:24.625Z,22.63
2022-10-31T14:23:55.052Z,22.42
2022-10-31T14:26:29.422Z,22.55
2022-10-31T14:29:15.818Z,22.90
2022-10-31T14:31:52.672Z,23.23
2022-10-31T14:34:32.112Z,23.75
2022-10-31T14:37:42.485Z,22.00
2022-10-31T14:40:37.257Z,21.52
2022-10-31T14:43:45.483Z,23.00
2022-10-31T14:46:46.431Z,21.67
2022-10-31T14:49:43.748Z,23.13
2022-10-31T14:52:18.157Z,22.17
2022-10-31T14:54:55.483Z,22.00
2022-10-31T14:57:30.004Z,22.15
2022-10-31T15:00:06.261Z,22.17
2022-10-31T15:03:21.919Z,23.90
2022-10-31T15:05:57.106Z,22.77
2022-10-31T15:08:34.846Z,23.77
2022-10-31T15:12:24.044Z,23.63
2022-10-31T15:14:51.696Z,24.50
2022-10-31T15:18:08.237Z,25.50
2022-10-31T15:20:46.993Z,22.90
2022-10-31T15:23:30.504Z,27.33
2022-10-31T15:26:02.843Z,27.05
2022-10-31T15:28:32.193Z,26.10
2022-10-31T15:31:02.874Z,27.05
2022-10-31T15:33:45.332Z,27.00
2022-10-31T15:36:27.161Z,27.48
2022-10-31T15:38:58.558Z,27.55
2022-10-31T15:41:55.098Z,28.75
2022-10-31T15:45:06.136Z,28.85
2022-10-31T15:47:34.730Z,25.58
2022-10-31T15:50:04.783Z,23.85
2022-10-31T15:53:20.821Z,23.65
2022-10-31T15:56:32.511Z,24.52
2022-10-31T15:59:25.959Z,26.45
2022-10-31T16:02:11.492Z,25.45
2022-10-31T16:04:38.843Z,27.00
2022-10-31T16:07:23.237Z,26.42
2022-10-31T16:10:02.897Z,26.63
2022-10-31T16:12:38.670Z,27.85
2022-10-31T16:16:29.303Z,27.10
2022-10-31T16:19:48.867Z,26.05
2022-10-31T16:22:52.749Z,26.80
2022-10-31T16:25:38.581Z,25.92
2022-10-31T16:28:17.754Z,25.00
2022-10-31T16:30:48.815Z,26.05
2022-10-31T16:33:37.334Z,27.13
2022-10-31T16:36:35.928Z,24.75
2022-10-31T16:39:04.900Z,23.38
2022-10-31T16:41:37.374Z,23.77
2022-10-31T16:44:13.392Z,25.45
2022-10-31T16:46:40.612Z,23.23
2022-10-31T16:49:10.629Z,25.90
2022-10-31T16:51:38.164Z,26.45
2022-10-31T16:54:05.326Z,28.15
2022-10-31T16:56:37.557Z,25.50
2022-10-31T16:59:15.895Z,26.92
2022-10-31T17:01:50.413Z,25.65
2022-10-31T17:04:17.506Z,24.95
2022-10-31T17:06:44.612Z,25.92
2022-10-31T17:09:11.537Z,26.60
2022-10-31T17:11:49.493Z,26.92
2022-10-31T17:14:19.612Z,27.10
2022-10-31T17:16:47.063Z,28.40
2022-10-31T17:19:46.738Z,30.08
2022-10-31T17:22:15.619Z,24.50
2022-10-31T17:24:42.650Z,25.85
2022-10-31T17:27:11.677Z,26.33
2022-10-31T17:29:38.621Z,28.05
2022-10-31T17:32:06.101Z,28.48
2022-10-31T17:34:33.039Z,25.20
2022-10-31T17:37:00.169Z,27.60
2022-10-31T17:39:27.037Z,25.23
2022-10-31T17:41:54.086Z,24.20
2022-10-31T17:44:21.143Z,27.02
2022-10-31T17:46:48.183Z,25.05
2022-10-31T17:49:15.162Z,23.38
2022-10-31T17:51:42.216Z,24.83
2022-10-31T17:54:10.842Z,23.48
2022-10-31T17:56:37.914Z,24.35
2022-10-31T18:01:31.700Z,22.30
2022-10-31T18:03:58.766Z,25.80
2022-10-31T18:06:25.799Z,24.02
2022-10-31T18:08:52.704Z,24.95
2022-10-31T18:11:21.903Z,27.35
2022-10-31T18:13:56.686Z,24.27
2022-10-31T18:18:59.473Z,26.35
2022-10-31T18:21:26.783Z,24.75
2022-10-31T18:23:55.953Z,25.92
2022-10-31T18:26:25.141Z,25.58
2022-10-31T18:28:52.857Z,26.23
2022-10-31T18:31:20.736Z,24.42
2022-10-31T18:33:47.770Z,25.52
2022-10-31T18:36:14.921Z,26.70
2022-10-31T18:38:46.600Z,25.27
2022-10-31T18:41:15.066Z,25.95
2022-10-31T18:43:42.694Z,23.63
2022-10-31T18:46:14.638Z,24.75
2022-10-31T18:48:44.509Z,26.35
2022-10-31T18:51:14.637Z,26.25
2022-10-31T18:53:41.844Z,23.48
2022-10-31T18:56:11.052Z,25.98
2022-10-31T18:58:38.224Z,26.77
2022-10-31T19:01:11.160Z,28.73
2022-10-31T19:03:39.579Z,35.08
2022-10-31T19:06:10.593Z,28.08
2022-10-31T19:09:17.916Z,26.98
2022-10-31T19:11:45.057Z,26.25
2022-10-31T19:14:14.910Z,32.00
2022-10-31T19:16:42.185Z,26.40
2022-10-31T19:19:10.270Z,28.80
2022-10-31T19:21:37.454Z,29.67
2022-10-31T19:24:05.021Z,25.67
2022-10-31T19:26:33.418Z,28.27
2022-10-31T19:29:01.095Z,26.25
2022-10-31T19:31:28.140Z,24.23
2022-10-31T19:33:55.090Z,31.88
2022-10-31T19:36:22.936Z,25.27
2022-10-31T19:38:53.178Z,23.73
2022-10-31T19:41:26.645Z,24.95
2022-10-31T19:43:54.923Z,23.90
2022-10-31T19:46:48.123Z,24.42
2022-10-31T19:49:12.775Z,26.23
2022-10-31T19:51:40.126Z,27.15
2022-10-31T19:54:07.391Z,21.80
2022-10-31T19:56:34.764Z,22.88
2022-10-31T19:59:03.218Z,23.48
2022-10-31T20:01:30.461Z,21.92
2022-10-31T20:03:57.403Z,23.77
2022-10-31T20:06:38.889Z,24.27
2022-10-31T20:09:13.934Z,21.48
2022-10-31T20:11:43.925Z,21.00
2022-10-31T20:14:15.622Z,21.02
2022-10-31T20:16:44.648Z,20.00
2022-10-31T20:19:12.024Z,20.80
2022-10-31T20:21:41.096Z,19.77
2022-10-31T20:24:10.707Z,21.88
2022-10-31T20:26:40.874Z,21.77
2022-10-31T20:29:15.903Z,21.85
2022-10-31T20:31:45.601Z,21.33
2022-10-31T20:34:13.816Z,20.67
2022-10-31T20:36:41.092Z,23.13
2022-10-31T20:39:10.312Z,22.40
2022-10-31T20:41:39.512Z,23.80
2022-10-31T20:44:07.204Z,22.05
2022-10-31T20:46:35.000Z,22.15
2022-10-31T20:49:02.049Z,21.15
2022-10-31T20:51:31.687Z,23.00
2022-10-31T20:54:01.445Z,20.65
2022-10-31T20:56:30.112Z,23.67
2022-10-31T20:58:58.009Z,21.83
2022-10-31T21:01:31.489Z,18.40
2022-10-31T21:03:59.399Z,19.90
2022-10-31T21:06:27.829Z,21.42
2022-10-31T21:08:57.578Z,20.42
2022-10-31T21:11:28.295Z,18.85
2022-10-31T21:13:56.144Z,21.30
2022-10-31T21:16:27.933Z,20.90
2022-10-31T21:18:55.262Z,19.83
2022-10-31T21:21:35.422Z,23.60
2022-10-31T21:24:13.332Z,22.65
2022-10-31T21:26:45.106Z,18.95
2022-10-31T21:29:13.860Z,19.60
2022-10-31T21:31:42.575Z,19.25
2022-10-31T21:34:10.832Z,21.13
2022-10-31T21:36:38.959Z,20.20
2022-10-31T21:39:08.786Z,22.00
2022-10-31T21:41:36.037Z,20.65
2022-10-31T21:44:03.371Z,19.50
2022-10-31T21:46:33.340Z,20.17
2022-10-31T21:49:03.825Z,22.02
2022-10-31T21:51:34.678Z,21.50
2022-10-31T21:54:21.214Z,21.67
2022-10-31T21:56:48.439Z,19.25
2022-10-31T21:59:15.380Z,19.35
2022-10-31T22:01:42.918Z,20.77
2022-10-31T22:04:10.848Z,22.65
2022-10-31T22:06:38.543Z,21.83
2022-10-31T22:09:09.173Z,22.25
2022-10-31T22:11:37.521Z,20.73
2022-10-31T22:14:05.044Z,22.00
2022-10-31T22:16:36.423Z,22.35
2022-10-31T22:19:06.534Z,21.02
2022-10-31T22:21:46.704Z,21.95
2022-10-31T22:24:14.311Z,22.63
2022-10-31T22:26:41.864Z,22.10
2022-10-31T22:29:15.953Z,21.38
2022-10-31T22:31:48.419Z,23.73
2022-10-31T22:34:18.994Z,22.30
2022-10-31T22:36:46.410Z,22.92
2022-10-31T22:39:14.133Z,24.55
2022-10-31T22:41:41.966Z,22.17
2022-10-31T22:44:11.576Z,25.00
2022-10-31T22:46:40.277Z,23.13
2022-10-31T22:49:14.713Z,21.67
2022-10-31T22:51:43.692Z,23.17
2022-10-31T22:54:17.524Z,24.33
2022-10-31T22:56:45.370Z,23.08
2022-10-31T22:59:15.230Z,20.90
2022-10-31T23:01:47.414Z,21.25
2022-10-31T23:04:17.085Z,22.80
2022-10-31T23:06:49.154Z,22.50
2022-10-31T23:09:18.380Z,21.50
2022-10-31T23:11:46.292Z,20.63
2022-10-31T23:14:20.511Z,22.85
2022-10-31T23:16:52.850Z,24.40
2022-10-31T23:19:26.409Z,21.70
2022-10-31T23:22:02.141Z,20.50
2022-10-31T23:24:44.705Z,19.90
2022-10-31T23:27:18.114Z,17.33
2022-10-31T23:29:56.764Z,18.20
2022-10-31T23:32:37.052Z,20.45
2022-10-31T23:35:10.500Z,20.58
2022-10-31T23:37:38.851Z,21.23
2022-10-31T23:40:11.089Z,20.85
2022-10-31T23:42:38.166Z,19.95
2022-10-31T23:45:05.417Z,20.60
2022-10-31T23:47:32.500Z,21.23
2022-10-31T23:49:59.523Z,20.23
2022-10-31T23:52:26.590Z,20.08
2022-10-31T23:54:53.670Z,20.63
2022-10-31T23:57:21.009Z,20.20
2022-10-31T23:59:48.296Z,20.20
